Time;durP1;ratioP1;P1;durP2;ratioP2;P2;SDS_P1;SDS_P2;PMS_P1;PMS_P2;Temp;Humidity;BMP_temperature;BMP_pressure;BME280_temperature;BME280_humidity;BME280_pressure;Samples;Min_cycle;Max_cycle;Signal;HPM_P1;HPM_P2
2022/06/02 00:01:02;;;;;;;13.67;11.03;;;;;;;;;;4831856;29;20232;-65
2022/06/02 00:03:32;;;;;;;15.70;11.33;;;;;;;;;;4841228;29;20292;-64
2022/06/02 00:06:26;;;;;;;14.10;11.10;;;;;;;;;;4843701;29;20648;-64
2022/06/02 00:08:56;;;;;;;15.77;11.23;;;;;;;;;;4857467;29;20209;-65
2022/06/02 00:11:32;;;;;;;15.13;11.63;;;;;;;;;;4856803;29;20652;-65
2022/06/02 00:13:59;;;;;;;16.97;11.53;;;;;;;;;;4857681;29;20211;-65
2022/06/02 00:16:52;;;;;;;12.87;11.30;;;;;;;;;;4844222;29;20562;-65
2022/06/02 00:19:31;;;;;;;16.43;11.43;;;;;;;;;;4841089;29;20215;-64
2022/06/02 00:22:01;;;;;;;14.37;11.50;;;;;;;;;;4857730;29;20200;-64
2022/06/02 00:24:30;;;;;;;14.80;10.90;;;;;;;;;;4857639;29;20205;-65
2022/06/02 00:27:01;;;;;;;15.87;12.27;;;;;;;;;;4857423;29;20213;-64
2022/06/02 00:29:44;;;;;;;13.40;11.67;;;;;;;;;;4841019;29;20216;-64
2022/06/02 00:32:11;;;;;;;16.93;12.83;;;;;;;;;;4856986;29;20256;-65
2022/06/02 00:34:49;;;;;;;15.07;12.83;;;;;;;;;;4851338;29;20201;-64
2022/06/02 00:37:34;;;;;;;16.77;13.27;;;;;;;;;;4841086;29;20669;-64
2022/06/02 00:40:02;;;;;;;18.33;13.23;;;;;;;;;;4840780;29;20356;-64
2022/06/02 00:42:48;;;;;;;15.13;12.43;;;;;;;;;;4856922;29;20201;-64
2022/06/02 00:45:15;;;;;;;13.67;10.70;;;;;;;;;;4856701;29;20213;-65
2022/06/02 00:47:41;;;;;;;12.97;10.60;;;;;;;;;;4856932;29;20201;-64
2022/06/02 00:50:10;;;;;;;13.33;10.67;;;;;;;;;;4855728;29;20263;-64
2022/06/02 00:52:43;;;;;;;11.27;9.17;;;;;;;;;;4840653;29;20198;-64
2022/06/02 00:58:06;;;;;;;11.17;8.77;;;;;;;;;;4843070;29;20729;-64
2022/06/02 01:00:41;;;;;;;12.27;9.70;;;;;;;;;;4856597;29;20216;-64
2022/06/02 01:03:20;;;;;;;13.50;9.50;;;;;;;;;;4839908;29;20189;-64
2022/06/02 01:05:47;;;;;;;14.17;10.60;;;;;;;;;;4856568;29;20201;-65
2022/06/02 01:08:20;;;;;;;13.47;10.27;;;;;;;;;;4842954;29;20198;-65
2022/06/02 01:10:58;;;;;;;11.60;9.67;;;;;;;;;;4856367;29;20221;-64
2022/06/02 01:13:25;;;;;;;11.87;9.70;;;;;;;;;;4856224;29;20190;-64
2022/06/02 01:16:00;;;;;;;12.17;10.50;;;;;;;;;;4856637;29;20666;-64
2022/06/02 01:18:43;;;;;;;15.50;11.90;;;;;;;;;;4839846;29;20231;-64
2022/06/02 01:21:10;;;;;;;15.80;12.97;;;;;;;;;;4856332;29;20205;-64
2022/06/02 01:23:52;;;;;;;17.23;13.27;;;;;;;;;;4856349;29;20201;-64
2022/06/02 01:26:34;;;;;;;17.73;13.37;;;;;;;;;;4856393;29;20201;-64
2022/06/02 01:29:19;;;;;;;15.70;13.27;;;;;;;;;;4854926;29;20201;-65
2022/06/02 01:32:00;;;;;;;16.80;12.57;;;;;;;;;;4855892;29;20236;-65
2022/06/02 01:34:46;;;;;;;16.73;12.80;;;;;;;;;;4856423;29;20205;-64
2022/06/02 01:37:25;;;;;;;15.80;12.30;;;;;;;;;;4856182;29;20242;-64
2022/06/02 01:39:52;;;;;;;16.90;12.93;;;;;;;;;;4835391;29;20599;-65
2022/06/02 01:42:18;;;;;;;21.07;13.67;;;;;;;;;;4851625;29;20205;-65
2022/06/02 01:44:56;;;;;;;19.03;14.03;;;;;;;;;;4855957;29;20285;-64
2022/06/02 01:47:23;;;;;;;20.97;13.40;;;;;;;;;;4855779;29;20208;-64
2022/06/02 01:49:55;;;;;;;19.30;13.50;;;;;;;;;;4856035;29;20270;-65
2022/06/02 01:52:32;;;;;;;17.23;13.27;;;;;;;;;;4855496;29;20221;-64
2022/06/02 01:55:17;;;;;;;17.43;13.53;;;;;;;;;;4840054;29;20201;-65
2022/06/02 01:58:20;;;;;;;13.87;11.67;;;;;;;;;;4849085;29;20200;-64
2022/06/02 02:00:47;;;;;;;13.23;11.03;;;;;;;;;;4854704;29;20581;-64
2022/06/02 02:03:45;;;;;;;13.17;10.57;;;;;;;;;;4855979;29;20557;-64
2022/06/02 02:06:17;;;;;;;12.97;10.50;;;;;;;;;;4814940;29;20225;-64
2022/06/02 02:08:43;;;;;;;10.97;9.43;;;;;;;;;;4839257;29;20201;-64
2022/06/02 02:11:16;;;;;;;11.07;8.97;;;;;;;;;;4855483;29;20233;-64
2022/06/02 02:13:46;;;;;;;11.13;8.87;;;;;;;;;;4856722;29;20213;-64
2022/06/02 02:16:20;;;;;;;8.90;8.00;;;;;;;;;;4854493;29;20212;-64
2022/06/02 02:18:49;;;;;;;9.47;7.90;;;;;;;;;;4856104;29;20214;-64
2022/06/02 02:21:29;;;;;;;10.27;8.33;;;;;;;;;;4855651;29;20213;-64
2022/06/02 02:23:57;;;;;;;11.13;8.93;;;;;;;;;;4855796;29;20205;-64
2022/06/02 02:26:24;;;;;;;9.80;8.80;;;;;;;;;;4855341;29;20193;-64
2022/06/02 02:29:09;;;;;;;10.07;8.97;;;;;;;;;;4855506;29;21052;-64
2022/06/02 02:32:16;;;;;;;10.80;9.17;;;;;;;;;;4848675;29;20220;-64
2022/06/02 02:34:46;;;;;;;11.53;9.10;;;;;;;;;;4860214;29;20192;-63
2022/06/02 02:37:14;;;;;;;10.70;8.33;;;;;;;;;;4876515;29;20193;-64
2022/06/02 02:39:43;;;;;;;9.20;8.20;;;;;;;;;;4874182;29;20213;-64
2022/06/02 02:42:13;;;;;;;9.57;8.07;;;;;;;;;;4873445;29;20240;-64
2022/06/02 02:44:58;;;;;;;10.50;9.03;;;;;;;;;;4874262;29;20196;-64
2022/06/02 02:47:32;;;;;;;11.63;9.10;;;;;;;;;;4860083;29;20205;-64
2022/06/02 02:50:05;;;;;;;13.00;9.37;;;;;;;;;;4857188;29;20201;-64
2022/06/02 02:52:51;;;;;;;11.27;9.97;;;;;;;;;;4857194;29;20982;-64
2022/06/02 02:55:17;;;;;;;11.43;9.80;;;;;;;;;;4873959;29;20204;-64
2022/06/02 02:58:05;;;;;;;12.50;9.53;;;;;;;;;;4873788;29;20907;-63
2022/06/02 03:00:33;;;;;;;11.00;8.60;;;;;;;;;;4841965;29;20213;-64
2022/06/02 03:03:23;;;;;;;13.27;9.10;;;;;;;;;;4868825;29;21055;-64
2022/06/02 03:06:08;;;;;;;9.83;8.83;;;;;;;;;;4861313;29;20217;-63
2022/06/02 03:08:39;;;;;;;11.63;7.80;;;;;;;;;;4873609;29;20231;-64
2022/06/02 03:11:11;;;;;;;9.17;7.93;;;;;;;;;;4857103;29;20248;-64
2022/06/02 03:13:44;;;;;;;8.77;7.87;;;;;;;;;;4845547;29;20267;-64
2022/06/02 03:16:11;;;;;;;10.33;8.33;;;;;;;;;;4863390;29;20673;-64
2022/06/02 03:18:41;;;;;;;8.47;7.67;;;;;;;;;;4857340;29;20205;-64
2022/06/02 03:21:16;;;;;;;9.33;7.87;;;;;;;;;;4866541;29;20214;-64
2022/06/02 03:23:43;;;;;;;9.13;8.17;;;;;;;;;;4873311;29;20601;-64
2022/06/02 03:26:14;;;;;;;10.00;7.60;;;;;;;;;;4855902;29;20565;-64
2022/06/02 03:28:48;;;;;;;9.37;8.17;;;;;;;;;;4832779;29;20222;-63
2022/06/02 03:31:17;;;;;;;13.80;8.43;;;;;;;;;;4870873;29;20227;-64
2022/06/02 03:34:01;;;;;;;9.80;7.93;;;;;;;;;;4876987;29;21031;-64
2022/06/02 03:36:47;;;;;;;10.00;7.50;;;;;;;;;;4863588;29;20729;-63
2022/06/02 03:39:24;;;;;;;8.13;7.33;;;;;;;;;;4867947;29;20197;-64
2022/06/02 03:41:58;;;;;;;7.97;7.17;;;;;;;;;;4826357;29;20827;-64
2022/06/02 03:45:00;;;;;;;10.03;7.10;;;;;;;;;;4839633;29;20186;-64
2022/06/02 03:47:36;;;;;;;8.63;6.77;;;;;;;;;;4826520;29;20256;-63
2022/06/02 03:50:09;;;;;;;8.47;7.10;;;;;;;;;;4839295;29;20281;-64
2022/06/02 03:52:35;;;;;;;7.87;7.07;;;;;;;;;;4839296;29;20720;-64
2022/06/02 03:55:08;;;;;;;7.43;6.50;;;;;;;;;;4823557;29;20214;-64
2022/06/02 03:57:53;;;;;;;8.87;6.63;;;;;;;;;;4849560;29;20194;-64
2022/06/02 04:00:59;;;;;;;7.93;6.77;;;;;;;;;;4835555;29;20186;-64
2022/06/02 04:03:45;;;;;;;7.93;6.80;;;;;;;;;;4828854;29;20289;-65
2022/06/02 04:06:30;;;;;;;9.27;6.23;;;;;;;;;;4819787;29;20230;-65
2022/06/02 04:09:02;;;;;;;8.07;6.53;;;;;;;;;;4820656;29;20202;-65
2022/06/02 04:14:37;;;;;;;8.40;6.53;;;;;;;;;;4818615;29;20265;-64
2022/06/02 04:17:11;;;;;;;9.60;6.93;;;;;;;;;;4821054;29;20206;-64
2022/06/02 04:22:51;;;;;;;10.17;6.70;;;;;;;;;;4813720;29;20195;-64
2022/06/02 04:25:22;;;;;;;9.87;7.23;;;;;;;;;;4814094;29;20607;-64
2022/06/02 04:27:55;;;;;;;9.97;7.30;;;;;;;;;;4820532;29;20226;-63
2022/06/02 04:30:30;;;;;;;10.07;7.40;;;;;;;;;;4835901;29;20936;-65
2022/06/02 04:33:08;;;;;;;8.27;7.23;;;;;;;;;;4818330;29;20216;-64
2022/06/02 04:35:36;;;;;;;8.73;7.17;;;;;;;;;;4818348;29;20599;-64
2022/06/02 04:38:03;;;;;;;8.23;6.90;;;;;;;;;;4816333;29;20671;-64
2022/06/02 04:40:36;;;;;;;9.43;6.27;;;;;;;;;;4829097;29;20244;-64
2022/06/02 04:43:18;;;;;;;8.47;5.80;;;;;;;;;;4825640;29;20213;-65
2022/06/02 04:45:55;;;;;;;8.80;6.37;;;;;;;;;;4859361;29;20209;-65
2022/06/02 04:48:37;;;;;;;8.10;6.23;;;;;;;;;;4858643;29;20217;-63
2022/06/02 04:51:08;;;;;;;7.23;5.67;;;;;;;;;;4831205;29;20708;-65
2022/06/02 04:53:49;;;;;;;7.53;6.30;;;;;;;;;;4875385;29;20200;-63
2022/06/02 04:56:21;;;;;;;6.83;5.70;;;;;;;;;;4843836;29;20753;-63
2022/06/02 04:58:54;;;;;;;7.07;5.83;;;;;;;;;;4842575;29;20215;-63
2022/06/02 05:01:37;;;;;;;7.53;5.70;;;;;;;;;;4865769;29;20214;-63
2022/06/02 05:04:23;;;;;;;7.70;5.23;;;;;;;;;;4858119;29;20205;-64
2022/06/02 05:06:52;;;;;;;7.20;5.83;;;;;;;;;;4870884;29;20203;-64
2022/06/02 05:09:40;;;;;;;8.33;6.07;;;;;;;;;;4846791;29;20204;-63
2022/06/02 05:12:16;;;;;;;7.43;6.13;;;;;;;;;;4847144;29;20327;-63
2022/06/02 05:14:42;;;;;;;7.07;6.33;;;;;;;;;;4864235;29;20210;-64
2022/06/02 05:17:18;;;;;;;7.73;6.17;;;;;;;;;;4858478;29;20216;-63
2022/06/02 05:19:47;;;;;;;7.57;6.70;;;;;;;;;;4874976;29;20203;-63
2022/06/02 05:22:17;;;;;;;7.10;6.43;;;;;;;;;;4872588;29;20200;-64
2022/06/02 05:24:43;;;;;;;8.47;6.83;;;;;;;;;;4874687;29;20222;-64
2022/06/02 05:27:18;;;;;;;7.20;5.73;;;;;;;;;;4862302;29;20305;-65
2022/06/02 05:30:13;;;;;;;6.23;5.63;;;;;;;;;;4836839;29;20197;-65
2022/06/02 05:32:40;;;;;;;6.53;5.17;;;;;;;;;;4823658;29;20233;-65
2022/06/02 05:35:16;;;;;;;6.80;5.10;;;;;;;;;;4844191;29;20705;-64
2022/06/02 05:38:03;;;;;;;5.10;4.60;;;;;;;;;;4850415;29;20201;-64
2022/06/02 05:40:41;;;;;;;5.10;4.60;;;;;;;;;;4858619;29;20229;-65
2022/06/02 05:43:10;;;;;;;5.13;4.60;;;;;;;;;;4859276;29;20224;-65
2022/06/02 05:45:49;;;;;;;6.20;4.70;;;;;;;;;;4850581;29;20233;-69
2022/06/02 05:48:52;;;;;;;4.73;4.23;;;;;;;;;;4851360;29;21137;-66
2022/06/02 05:51:29;;;;;;;5.27;4.77;;;;;;;;;;4862419;29;20711;-65
2022/06/02 05:54:08;;;;;;;4.40;4.00;;;;;;;;;;4866028;29;20683;-65
2022/06/02 05:56:50;;;;;;;6.47;4.30;;;;;;;;;;4858678;29;20284;-66
2022/06/02 05:59:27;;;;;;;7.13;4.40;;;;;;;;;;4838774;29;20284;-65
2022/06/02 06:02:03;;;;;;;4.47;3.70;;;;;;;;;;4852350;29;20598;-64
2022/06/02 06:04:49;;;;;;;4.23;3.83;;;;;;;;;;4852838;29;20200;-66
2022/06/02 06:07:21;;;;;;;3.67;3.10;;;;;;;;;;4858559;29;20299;-64
2022/06/02 06:10:01;;;;;;;4.30;3.23;;;;;;;;;;4859465;29;20688;-64
2022/06/02 06:12:43;;;;;;;4.53;3.10;;;;;;;;;;4839013;29;20920;-64
2022/06/02 06:15:19;;;;;;;4.53;3.30;;;;;;;;;;4840565;29;21039;-63
2022/06/02 06:17:53;;;;;;;3.60;3.17;;;;;;;;;;4841700;29;20638;-65
2022/06/02 06:20:29;;;;;;;4.10;3.20;;;;;;;;;;4834934;29;20197;-64
2022/06/02 06:23:14;;;;;;;2.87;2.43;;;;;;;;;;4857792;29;20223;-64
2022/06/02 06:25:44;;;;;;;4.97;2.80;;;;;;;;;;4851521;29;20230;-64
2022/06/02 06:28:13;;;;;;;3.60;2.87;;;;;;;;;;4855589;29;21463;-57
2022/06/02 06:30:43;;;;;;;2.67;2.40;;;;;;;;;;4850865;29;20212;-57
2022/06/02 06:33:13;;;;;;;2.77;2.20;;;;;;;;;;4852835;29;21089;-57
2022/06/02 06:35:45;;;;;;;3.90;2.50;;;;;;;;;;4856796;29;20213;-57
2022/06/02 06:38:21;;;;;;;3.03;2.20;;;;;;;;;;4853675;29;20201;-57
2022/06/02 06:40:57;;;;;;;2.57;2.20;;;;;;;;;;4834482;29;20300;-57
2022/06/02 06:43:30;;;;;;;2.07;1.87;;;;;;;;;;4852134;29;20203;-57
2022/06/02 06:45:57;;;;;;;2.23;1.73;;;;;;;;;;4857759;29;20307;-58
2022/06/02 06:48:24;;;;;;;1.93;1.63;;;;;;;;;;4850749;29;20193;-63
2022/06/02 06:50:54;;;;;;;2.00;1.80;;;;;;;;;;4821292;29;20216;-63
2022/06/02 06:53:40;;;;;;;3.87;2.10;;;;;;;;;;4856166;29;20225;-64
2022/06/02 06:56:20;;;;;;;2.33;2.13;;;;;;;;;;4858536;29;20822;-64
2022/06/02 06:58:51;;;;;;;1.97;1.77;;;;;;;;;;4852025;29;20209;-63
2022/06/02 07:01:31;;;;;;;3.83;1.50;;;;;;;;;;4865206;29;20320;-64
2022/06/02 07:04:17;;;;;;;1.73;1.60;;;;;;;;;;4856708;29;20240;-65
2022/06/02 07:06:53;;;;;;;1.73;1.20;;;;;;;;;;4837833;29;20999;-62
2022/06/02 07:09:23;;;;;;;3.07;2.00;;;;;;;;;;4854811;29;20811;-62
2022/06/02 07:14:39;;;;;;;1.47;1.37;;;;;;;;;;4840490;29;20208;-63
2022/06/02 07:17:10;;;;;;;3.90;1.70;;;;;;;;;;4857764;29;20678;-65
2022/06/02 07:19:39;;;;;;;3.00;1.87;;;;;;;;;;4839978;29;20197;-62
2022/06/02 07:22:12;;;;;;;2.90;2.17;;;;;;;;;;4842442;29;20212;-61
2022/06/02 07:24:45;;;;;;;2.73;1.70;;;;;;;;;;4855997;29;20243;-63
2022/06/02 07:27:18;;;;;;;2.70;1.73;;;;;;;;;;4858058;29;20253;-63
2022/06/02 07:30:03;;;;;;;1.70;1.60;;;;;;;;;;4850057;29;20281;-63
2022/06/02 07:32:39;;;;;;;3.50;1.80;;;;;;;;;;4856741;29;20212;-64
2022/06/02 07:35:22;;;;;;;2.67;1.80;;;;;;;;;;4861336;29;20300;-64
2022/06/02 07:37:49;;;;;;;2.60;1.90;;;;;;;;;;4842298;29;20224;-64
2022/06/02 07:40:38;;;;;;;3.43;1.70;;;;;;;;;;4858288;29;20235;-63
2022/06/02 07:43:05;;;;;;;1.30;1.10;;;;;;;;;;4850925;29;20209;-64
2022/06/02 07:45:36;;;;;;;2.47;1.50;;;;;;;;;;4859966;29;20197;-63
2022/06/02 07:48:22;;;;;;;2.23;1.40;;;;;;;;;;4857684;29;20224;-63
2022/06/02 07:50:55;;;;;;;3.00;1.30;;;;;;;;;;4857173;29;20585;-62
2022/06/02 07:53:29;;;;;;;1.60;1.50;;;;;;;;;;4854229;29;20241;-63
2022/06/02 07:56:15;;;;;;;3.97;1.33;;;;;;;;;;4839727;29;20249;-62
2022/06/02 07:58:42;;;;;;;1.60;1.50;;;;;;;;;;4856816;29;20312;-62
2022/06/02 08:01:22;;;;;;;1.87;1.60;;;;;;;;;;4854329;29;20202;-63
2022/06/02 08:03:56;;;;;;;2.70;1.70;;;;;;;;;;4842654;29;20220;-62
2022/06/02 08:06:44;;;;;;;2.97;1.50;;;;;;;;;;4855085;29;20196;-63
2022/06/02 08:09:14;;;;;;;2.77;1.30;;;;;;;;;;4859762;29;21051;-62
2022/06/02 08:11:44;;;;;;;2.73;1.50;;;;;;;;;;4853643;29;20212;-64
2022/06/02 08:14:13;;;;;;;1.40;1.30;;;;;;;;;;4855572;29;20202;-62
2022/06/02 08:16:49;;;;;;;1.60;1.30;;;;;;;;;;4836826;29;20216;-64
2022/06/02 08:19:19;;;;;;;1.50;1.40;;;;;;;;;;4857469;29;20235;-63
2022/06/02 08:22:00;;;;;;;2.13;1.50;;;;;;;;;;4853040;29;20678;-65
2022/06/02 08:24:30;;;;;;;1.77;1.30;;;;;;;;;;4836459;29;20642;-65
2022/06/02 08:27:15;;;;;;;3.33;1.30;;;;;;;;;;4853031;29;20216;-63
2022/06/02 08:29:42;;;;;;;3.10;1.80;;;;;;;;;;4853848;29;20204;-62
2022/06/02 08:32:25;;;;;;;2.20;1.70;;;;;;;;;;4850471;29;20237;-63
2022/06/02 08:35:11;;;;;;;1.97;1.40;;;;;;;;;;4835977;29;20203;-62
2022/06/02 08:37:57;;;;;;;3.17;1.67;;;;;;;;;;4847731;29;20213;-62
2022/06/02 08:40:50;;;;;;;1.83;1.40;;;;;;;;;;4859516;29;20236;-61
2022/06/02 08:43:20;;;;;;;2.70;1.57;;;;;;;;;;4859766;29;20209;-61
2022/06/02 08:45:50;;;;;;;2.97;1.43;;;;;;;;;;4875753;29;20204;-61
2022/06/02 08:48:29;;;;;;;2.07;1.23;;;;;;;;;;4875532;29;20212;-61
2022/06/02 08:51:15;;;;;;;2.20;1.30;;;;;;;;;;4875209;29;20653;-61
2022/06/02 08:53:42;;;;;;;2.17;1.47;;;;;;;;;;4866215;29;20256;-63
2022/06/02 08:56:27;;;;;;;2.53;1.67;;;;;;;;;;4852982;29;20292;-64
2022/06/02 08:58:54;;;;;;;2.20;1.50;;;;;;;;;;4852784;29;20193;-63
2022/06/02 09:01:40;;;;;;;1.77;1.53;;;;;;;;;;4860304;29;20197;-63
2022/06/02 09:04:30;;;;;;;2.17;1.30;;;;;;;;;;4839311;29;20185;-62
2022/06/02 09:07:11;;;;;;;2.10;1.60;;;;;;;;;;4864409;29;20301;-62
2022/06/02 09:10:16;;;;;;;2.53;1.50;;;;;;;;;;4853575;29;20980;-61
2022/06/02 09:12:52;;;;;;;2.07;1.60;;;;;;;;;;4858193;29;20585;-62
2022/06/02 09:15:37;;;;;;;2.80;1.27;;;;;;;;;;4862164;29;20308;-63
2022/06/02 09:18:36;;;;;;;1.80;1.10;;;;;;;;;;4859227;29;20205;-63
2022/06/02 09:21:25;;;;;;;1.93;1.60;;;;;;;;;;4839264;29;20197;-64
2022/06/02 09:23:59;;;;;;;1.73;1.27;;;;;;;;;;4840146;29;20564;-63
2022/06/02 09:26:32;;;;;;;1.60;1.30;;;;;;;;;;4840728;29;20190;-64
2022/06/02 09:29:03;;;;;;;2.63;1.30;;;;;;;;;;4854469;29;20205;-64
2022/06/02 09:31:37;;;;;;;3.43;1.67;;;;;;;;;;4860038;29;20208;-63
2022/06/02 09:34:25;;;;;;;3.33;1.53;;;;;;;;;;4844722;29;20268;-61
2022/06/02 09:36:52;;;;;;;2.67;1.30;;;;;;;;;;4861027;29;20205;-61
2022/06/02 09:39:31;;;;;;;2.13;1.60;;;;;;;;;;4859131;29;20285;-62
2022/06/02 09:41:58;;;;;;;3.20;1.50;;;;;;;;;;4857738;29;20240;-62
2022/06/02 09:44:26;;;;;;;2.00;1.40;;;;;;;;;;4854549;29;20213;-63
2022/06/02 09:47:13;;;;;;;2.10;1.80;;;;;;;;;;4842834;29;20637;-63
2022/06/02 09:49:59;;;;;;;2.97;1.80;;;;;;;;;;4843529;29;20216;-63
2022/06/02 09:52:28;;;;;;;3.00;1.70;;;;;;;;;;4858072;29;20320;-62
2022/06/02 09:54:56;;;;;;;3.53;1.60;;;;;;;;;;4860711;29;20240;-62
2022/06/02 10:00:22;;;;;;;2.97;1.50;;;;;;;;;;4852984;29;20221;-62
2022/06/02 10:02:59;;;;;;;1.77;1.40;;;;;;;;;;4858445;29;20685;-63
2022/06/02 10:05:41;;;;;;;1.73;1.57;;;;;;;;;;4836593;29;21228;-64
2022/06/02 10:08:12;;;;;;;2.87;1.60;;;;;;;;;;4853903;29;20201;-64
2022/06/02 10:10:45;;;;;;;2.90;1.37;;;;;;;;;;4840916;29;20204;-64
2022/06/02 10:13:34;;;;;;;4.30;1.83;;;;;;;;;;4855202;29;20954;-65
2022/06/02 10:16:03;;;;;;;3.00;1.60;;;;;;;;;;4859842;29;20207;-65
2022/06/02 10:18:34;;;;;;;2.73;1.80;;;;;;;;;;4858389;29;20209;-65
2022/06/02 10:21:05;;;;;;;3.07;1.93;;;;;;;;;;4857765;29;20626;-65
2022/06/02 10:23:50;;;;;;;4.80;2.73;;;;;;;;;;4855837;29;20312;-64
2022/06/02 10:26:43;;;;;;;4.47;2.47;;;;;;;;;;4863654;29;20196;-64
2022/06/02 10:29:35;;;;;;;3.57;2.43;;;;;;;;;;4861289;29;20200;-64
2022/06/02 10:32:08;;;;;;;3.97;2.87;;;;;;;;;;4852964;29;20618;-65
2022/06/02 10:34:54;;;;;;;4.57;2.87;;;;;;;;;;4868511;29;20199;-64
2022/06/02 10:37:57;;;;;;;3.47;3.07;;;;;;;;;;4863114;29;20229;-64
2022/06/02 10:40:36;;;;;;;5.17;3.07;;;;;;;;;;4844909;29;20240;-64
2022/06/02 10:43:18;;;;;;;4.43;2.27;;;;;;;;;;4878277;29;20306;-64
2022/06/02 10:46:04;;;;;;;3.07;2.43;;;;;;;;;;4878072;29;20584;-64
2022/06/02 10:48:54;;;;;;;2.60;2.40;;;;;;;;;;4858966;29;20189;-64
2022/06/02 10:51:27;;;;;;;2.43;2.10;;;;;;;;;;4849369;29;20215;-64
2022/06/02 10:54:08;;;;;;;2.60;2.17;;;;;;;;;;4854552;29;20381;-63
2022/06/02 10:56:41;;;;;;;2.67;2.33;;;;;;;;;;4841897;29;20201;-64
2022/06/02 10:59:22;;;;;;;2.60;2.40;;;;;;;;;;4855853;29;20661;-63
2022/06/02 11:01:58;;;;;;;3.07;2.30;;;;;;;;;;4844675;29;20224;-64
2022/06/02 11:04:43;;;;;;;3.83;2.10;;;;;;;;;;4831101;29;20180;-65
2022/06/02 11:07:13;;;;;;;3.73;2.07;;;;;;;;;;4856675;29;20280;-65
2022/06/02 11:09:42;;;;;;;4.30;2.00;;;;;;;;;;4857717;29;20201;-64
2022/06/02 11:12:21;;;;;;;3.50;2.17;;;;;;;;;;4857302;29;20202;-63
2022/06/02 11:14:56;;;;;;;3.70;2.80;;;;;;;;;;4856414;29;20666;-64
2022/06/02 11:17:46;;;;;;;4.77;2.50;;;;;;;;;;4857205;29;20603;-63
2022/06/02 11:20:28;;;;;;;2.57;2.37;;;;;;;;;;4856215;29;20201;-65
2022/06/02 11:23:04;;;;;;;2.20;2.00;;;;;;;;;;4854712;29;20296;-64
2022/06/02 11:26:07;;;;;;;3.40;2.10;;;;;;;;;;4858309;29;20205;-64
2022/06/02 11:28:37;;;;;;;2.97;1.93;;;;;;;;;;4855567;29;20229;-65
2022/06/02 11:31:29;;;;;;;3.07;2.00;;;;;;;;;;4853564;29;20186;-65
2022/06/02 11:34:15;;;;;;;2.57;1.80;;;;;;;;;;4840161;29;20723;-65
2022/06/02 11:37:15;;;;;;;3.17;1.80;;;;;;;;;;4855938;29;20200;-65
2022/06/02 11:40:00;;;;;;;4.73;1.87;;;;;;;;;;4856816;29;20257;-64
2022/06/02 11:42:38;;;;;;;2.17;1.73;;;;;;;;;;4858485;29;20233;-64
2022/06/02 11:45:15;;;;;;;5.10;2.53;;;;;;;;;;4862704;29;20600;-66
2022/06/02 11:48:01;;;;;;;4.57;2.43;;;;;;;;;;4855206;29;20289;-65
2022/06/02 11:50:39;;;;;;;4.80;2.07;;;;;;;;;;4857045;29;20203;-65
2022/06/02 11:53:36;;;;;;;5.13;1.90;;;;;;;;;;4842134;29;20221;-63
2022/06/02 11:56:06;;;;;;;3.50;2.10;;;;;;;;;;4864503;29;20213;-67
2022/06/02 11:58:38;;;;;;;2.63;1.70;;;;;;;;;;4853311;29;20206;-66
2022/06/02 12:01:12;;;;;;;2.03;1.80;;;;;;;;;;4861483;29;20654;-64
2022/06/02 12:03:57;;;;;;;2.20;1.90;;;;;;;;;;4843203;29;20935;-65
2022/06/02 12:06:44;;;;;;;2.10;1.60;;;;;;;;;;4839321;29;20230;-64
2022/06/02 12:09:33;;;;;;;3.17;1.60;;;;;;;;;;4860089;29;20220;-64
2022/06/02 12:12:18;;;;;;;3.93;1.50;;;;;;;;;;4820779;29;20317;-55
2022/06/02 12:15:03;;;;;;;1.77;1.50;;;;;;;;;;4867611;29;20228;-54
2022/06/02 12:17:42;;;;;;;3.20;1.87;;;;;;;;;;4876056;29;20208;-54
2022/06/02 12:20:13;;;;;;;3.47;2.17;;;;;;;;;;4871628;29;20650;-53
2022/06/02 12:23:09;;;;;;;4.43;2.17;;;;;;;;;;4850218;29;20193;-62
2022/06/02 12:25:42;;;;;;;3.70;2.50;;;;;;;;;;4840030;29;20213;-62
2022/06/02 12:28:08;;;;;;;3.33;2.63;;;;;;;;;;4860100;29;20205;-63
2022/06/02 12:30:41;;;;;;;4.00;2.50;;;;;;;;;;4857068;29;20204;-62
2022/06/02 12:33:24;;;;;;;4.60;2.30;;;;;;;;;;4840645;29;20217;-61
2022/06/02 12:36:21;;;;;;;3.80;2.63;;;;;;;;;;4843516;29;20185;-62
2022/06/02 12:39:06;;;;;;;3.70;2.50;;;;;;;;;;4857319;29;20201;-61
2022/06/02 12:41:52;;;;;;;4.47;2.93;;;;;;;;;;4868235;29;20252;-62
2022/06/02 12:44:31;;;;;;;3.93;2.70;;;;;;;;;;4851456;29;20626;-61
2022/06/02 12:46:58;;;;;;;4.57;3.00;;;;;;;;;;4859022;29;20197;-62
2022/06/02 12:49:30;;;;;;;3.67;2.97;;;;;;;;;;4875478;29;20745;-62
2022/06/02 12:52:03;;;;;;;3.70;3.10;;;;;;;;;;4876019;29;20249;-61
2022/06/02 12:54:51;;;;;;;3.47;2.67;;;;;;;;;;4844658;29;20937;-61
2022/06/02 12:57:38;;;;;;;4.83;2.70;;;;;;;;;;4855163;29;20201;-61
2022/06/02 13:00:13;;;;;;;3.00;2.70;;;;;;;;;;4859032;29;20232;-62
2022/06/02 13:02:46;;;;;;;5.57;2.90;;;;;;;;;;4859122;29;20197;-62
2022/06/02 13:05:16;;;;;;;3.80;2.90;;;;;;;;;;4875144;29;20364;-62
2022/06/02 13:08:02;;;;;;;3.60;3.00;;;;;;;;;;4875415;29;20200;-61
2022/06/02 13:11:02;;;;;;;5.90;3.10;;;;;;;;;;4874983;29;20191;-62
2022/06/02 13:13:32;;;;;;;3.83;2.90;;;;;;;;;;4858847;29;20231;-62
2022/06/02 13:16:08;;;;;;;3.53;2.60;;;;;;;;;;4875646;29;20203;-62
2022/06/02 13:18:36;;;;;;;2.90;2.60;;;;;;;;;;4870347;29;20249;-62
2022/06/02 13:21:18;;;;;;;3.17;2.03;;;;;;;;;;4871452;29;20199;-64
2022/06/02 13:23:53;;;;;;;2.80;1.90;;;;;;;;;;4874777;29;20593;-62
2022/06/02 13:26:23;;;;;;;3.47;1.90;;;;;;;;;;4858545;29;20192;-62
2022/06/02 13:29:09;;;;;;;4.33;1.77;;;;;;;;;;4875037;29;20200;-62
2022/06/02 13:32:01;;;;;;;2.30;1.90;;;;;;;;;;4874748;29;20180;-62
2022/06/02 13:34:46;;;;;;;3.60;1.63;;;;;;;;;;4861913;29;20228;-63
2022/06/02 13:37:31;;;;;;;4.20;2.10;;;;;;;;;;4874592;29;20561;-62
2022/06/02 13:39:58;;;;;;;2.37;1.60;;;;;;;;;;4874857;29;20272;-62
2022/06/02 13:42:25;;;;;;;2.47;1.90;;;;;;;;;;4873987;29;20209;-61
2022/06/02 13:45:00;;;;;;;2.33;1.60;;;;;;;;;;4874578;29;20216;-61
2022/06/02 13:47:44;;;;;;;1.97;1.30;;;;;;;;;;4874522;29;20193;-61
2022/06/02 13:50:14;;;;;;;3.40;1.60;;;;;;;;;;4858184;29;20295;-61
2022/06/02 13:52:41;;;;;;;1.77;1.40;;;;;;;;;;4865263;29;20565;-62
2022/06/02 13:58:18;;;;;;;3.80;1.50;;;;;;;;;;4861376;29;20201;-62
2022/06/02 14:00:45;;;;;;;2.33;1.63;;;;;;;;;;4874626;29;20196;-62
2022/06/02 14:03:14;;;;;;;2.20;1.70;;;;;;;;;;4874393;29;20189;-63
2022/06/02 14:06:05;;;;;;;3.73;1.40;;;;;;;;;;4874196;29;20193;-63
2022/06/02 14:08:42;;;;;;;2.73;1.50;;;;;;;;;;4858714;29;20223;-63
2022/06/02 14:11:08;;;;;;;2.00;1.40;;;;;;;;;;4874286;29;20800;-62
2022/06/02 14:13:35;;;;;;;2.60;1.13;;;;;;;;;;4874114;29;20299;-63
2022/06/02 14:16:02;;;;;;;1.13;0.70;;;;;;;;;;4874040;29;20607;-63
2022/06/02 14:18:55;;;;;;;1.23;0.70;;;;;;;;;;4862945;29;20277;-63
2022/06/02 14:21:30;;;;;;;1.57;0.60;;;;;;;;;;4843126;29;20558;-63
2022/06/02 14:24:00;;;;;;;2.73;0.57;;;;;;;;;;4874092;29;20224;-64
2022/06/02 14:27:01;;;;;;;0.80;0.50;;;;;;;;;;4860055;29;20216;-63
2022/06/02 14:29:31;;;;;;;1.90;0.70;;;;;;;;;;4874583;29;20665;-63
2022/06/02 14:32:28;;;;;;;2.07;0.60;;;;;;;;;;4858083;29;20193;-64
2022/06/02 14:35:06;;;;;;;1.30;0.70;;;;;;;;;;4839532;29;20705;-64
2022/06/02 14:37:36;;;;;;;1.03;0.50;;;;;;;;;;4857669;29;20189;-63
2022/06/02 14:40:12;;;;;;;2.03;0.57;;;;;;;;;;4857506;29;20911;-63
2022/06/02 14:43:06;;;;;;;0.93;0.70;;;;;;;;;;4855706;29;20196;-63
2022/06/02 14:45:50;;;;;;;0.80;0.60;;;;;;;;;;4874275;29;20260;-63
2022/06/02 14:48:36;;;;;;;1.00;0.57;;;;;;;;;;4820424;29;20208;-62
2022/06/02 14:51:13;;;;;;;0.87;0.70;;;;;;;;;;4873756;29;20257;-63
2022/06/02 14:53:49;;;;;;;1.20;0.53;;;;;;;;;;4848340;29;20232;-63
2022/06/02 14:56:31;;;;;;;0.93;0.70;;;;;;;;;;4874066;29;20232;-63
2022/06/02 14:59:17;;;;;;;0.70;0.60;;;;;;;;;;4851488;29;20712;-63
2022/06/02 15:01:49;;;;;;;0.50;0.50;;;;;;;;;;4873669;29;20197;-63
2022/06/02 15:04:50;;;;;;;2.03;0.70;;;;;;;;;;4859783;29;20224;-63
2022/06/02 15:07:25;;;;;;;1.50;0.50;;;;;;;;;;4874084;29;20204;-55
2022/06/02 15:10:02;;;;;;;0.80;0.53;;;;;;;;;;4857683;29;20259;-55
2022/06/02 15:12:37;;;;;;;1.60;0.60;;;;;;;;;;4874131;29;20211;-54
2022/06/02 15:15:21;;;;;;;0.93;0.60;;;;;;;;;;4859938;29;20229;-54
2022/06/02 15:17:59;;;;;;;2.03;0.50;;;;;;;;;;4873551;29;20204;-62
2022/06/02 15:20:34;;;;;;;1.93;0.70;;;;;;;;;;4859928;29;20196;-61
2022/06/02 15:23:39;;;;;;;0.90;0.70;;;;;;;;;;4863363;29;20208;-63
2022/06/02 15:26:10;;;;;;;1.37;0.73;;;;;;;;;;4876739;29;20201;-63
2022/06/02 15:28:46;;;;;;;0.80;0.50;;;;;;;;;;4876993;29;20216;-68
2022/06/02 15:31:16;;;;;;;2.93;0.60;;;;;;;;;;4877171;29;20296;-64
2022/06/02 15:33:46;;;;;;;1.17;0.70;;;;;;;;;;4860180;29;20285;-65
2022/06/02 15:36:22;;;;;;;1.40;0.73;;;;;;;;;;4876923;29;20237;-64
2022/06/02 15:38:55;;;;;;;1.03;0.80;;;;;;;;;;4876983;29;20204;-68
2022/06/02 15:41:41;;;;;;;2.27;0.90;;;;;;;;;;4876512;29;20241;-68
2022/06/02 15:44:26;;;;;;;1.33;0.67;;;;;;;;;;4876709;29;20208;-68
2022/06/02 15:47:06;;;;;;;2.30;1.00;;;;;;;;;;4859610;29;20215;-67
2022/06/02 15:49:38;;;;;;;3.07;0.87;;;;;;;;;;4876439;29;20209;-66
2022/06/02 15:52:24;;;;;;;2.23;0.70;;;;;;;;;;4859966;29;20205;-65
2022/06/02 15:55:05;;;;;;;2.90;0.97;;;;;;;;;;4876539;29;20212;-65
2022/06/02 15:57:54;;;;;;;1.73;0.93;;;;;;;;;;4860076;29;20208;-64